createdAt,value
2022-11-09T00:01:53.038Z,100.35
2022-11-09T00:03:56.548Z,99.93
2022-11-09T00:05:59.458Z,108.30
2022-11-09T00:08:00.939Z,110.72
2022-11-09T00:10:02.470Z,114.07
2022-11-09T00:12:05.791Z,120.78
2022-11-09T00:14:07.347Z,125.18
2022-11-09T00:16:12.053Z,129.55
2022-11-09T00:18:13.557Z,142.85
2022-11-09T00:20:15.241Z,131.70
2022-11-09T00:22:16.691Z,139.38
2022-11-09T00:24:18.164Z,140.75
2022-11-09T00:26:20.740Z,132.25
2022-11-09T00:28:22.183Z,138.20
2022-11-09T00:30:23.737Z,143.00
2022-11-09T00:32:27.748Z,143.02
2022-11-09T00:34:29.575Z,149.00
2022-11-09T00:36:31.085Z,139.63
2022-11-09T00:38:32.903Z,147.52
2022-11-09T00:40:34.483Z,149.45
2022-11-09T00:42:35.925Z,150.35
2022-11-09T00:44:37.371Z,153.77
2022-11-09T00:46:38.884Z,164.70
2022-11-09T00:48:40.688Z,160.23
2022-11-09T00:50:42.163Z,153.77
2022-11-09T00:52:43.673Z,157.90
2022-11-09T00:54:45.245Z,160.30
2022-11-09T00:56:47.076Z,173.40
2022-11-09T00:58:53.511Z,160.80
2022-11-09T01:00:56.665Z,163.45
2022-11-09T01:02:58.179Z,173.20
2022-11-09T01:05:00.157Z,166.45
2022-11-09T01:07:01.742Z,180.05
2022-11-09T01:09:03.489Z,164.18
2022-11-09T01:11:07.717Z,159.05
2022-11-09T01:13:10.557Z,161.70
2022-11-09T01:15:12.061Z,158.45
2022-11-09T01:17:13.531Z,159.68
2022-11-09T01:19:14.996Z,170.00
2022-11-09T01:21:16.607Z,163.60
2022-11-09T01:23:19.537Z,162.65
2022-11-09T01:25:21.624Z,171.35
2022-11-09T01:27:23.180Z,174.02
2022-11-09T01:29:24.672Z,175.13
2022-11-09T01:31:26.319Z,189.63
2022-11-09T01:33:28.330Z,201.57
2022-11-09T01:35:30.212Z,166.30
2022-11-09T01:37:31.709Z,171.05
2022-11-09T01:39:33.298Z,183.70
2022-11-09T01:41:34.791Z,183.88
2022-11-09T01:43:36.342Z,191.30
2022-11-09T01:45:37.812Z,195.68
2022-11-09T01:47:39.305Z,216.65
2022-11-09T01:49:46.933Z,202.25
2022-11-09T01:51:55.800Z,189.48
2022-11-09T01:54:01.858Z,208.53
2022-11-09T01:56:06.854Z,213.13
2022-11-09T01:58:12.757Z,184.35
2022-11-09T02:00:16.798Z,204.27
2022-11-09T02:02:18.598Z,183.13
2022-11-09T02:04:24.773Z,198.25
2022-11-09T02:06:28.784Z,191.50
2022-11-09T02:08:30.659Z,183.93
2022-11-09T02:11:01.763Z,182.30
2022-11-09T02:13:03.825Z,174.77
2022-11-09T02:15:08.752Z,169.60
2022-11-09T02:17:11.476Z,175.80
2022-11-09T02:19:13.018Z,177.05
2022-11-09T02:21:14.533Z,193.80
2022-11-09T02:23:16.440Z,164.05
2022-11-09T02:25:18.452Z,160.68
2022-11-09T02:27:20.315Z,204.77
2022-11-09T02:29:33.671Z,189.32
2022-11-09T02:31:39.418Z,179.95
2022-11-09T02:33:53.902Z,187.02
2022-11-09T02:35:55.523Z,154.05
2022-11-09T02:37:57.027Z,162.40
2022-11-09T02:40:01.143Z,171.38
2022-11-09T02:42:10.046Z,163.38
2022-11-09T02:44:13.307Z,151.35
2022-11-09T02:46:23.767Z,155.25
2022-11-09T02:48:25.265Z,153.30
2022-11-09T02:50:26.826Z,158.50
2022-11-09T02:52:28.428Z,158.70
2022-11-09T02:54:29.917Z,148.25
2022-11-09T02:56:31.426Z,159.13
2022-11-09T02:58:32.925Z,169.40
2022-11-09T03:00:34.358Z,168.73
2022-11-09T03:02:36.336Z,171.27
2022-11-09T03:04:37.797Z,167.38
2022-11-09T03:06:39.352Z,178.75
2022-11-09T03:08:40.872Z,192.60
2022-11-09T03:10:42.321Z,326.17
2022-11-09T03:12:43.782Z,298.40
2022-11-09T03:14:45.250Z,236.77
2022-11-09T03:16:50.469Z,283.65
2022-11-09T03:18:52.851Z,246.38
2022-11-09T03:20:54.327Z,251.85
2022-11-09T03:22:59.550Z,217.95
2022-11-09T03:25:01.088Z,221.80
2022-11-09T03:27:02.539Z,209.85
2022-11-09T03:29:04.051Z,199.35
2022-11-09T03:31:05.919Z,211.40
2022-11-09T03:33:10.443Z,210.10
2022-11-09T03:35:11.926Z,206.98
2022-11-09T03:37:13.459Z,215.85
2022-11-09T03:39:15.042Z,205.13
2022-11-09T03:41:16.556Z,197.52
2022-11-09T03:43:18.661Z,202.38
2022-11-09T03:45:20.648Z,201.90
2022-11-09T03:47:22.146Z,199.73
2022-11-09T03:49:26.558Z,199.90
2022-11-09T03:51:28.042Z,208.20
2022-11-09T03:53:29.953Z,231.93
2022-11-09T03:55:31.430Z,216.38
2022-11-09T03:57:32.934Z,219.55
2022-11-09T03:59:34.558Z,221.25
2022-11-09T04:01:36.111Z,239.73
2022-11-09T04:03:37.845Z,227.18
2022-11-09T04:05:39.353Z,217.95
2022-11-09T04:07:40.930Z,226.38
2022-11-09T04:09:42.423Z,226.32
2022-11-09T04:11:43.853Z,221.95
2022-11-09T04:13:45.410Z,225.55
2022-11-09T04:15:46.925Z,236.60
2022-11-09T04:17:58.331Z,231.85
2022-11-09T04:19:59.866Z,228.45
2022-11-09T04:22:01.432Z,216.38
2022-11-09T04:24:02.955Z,214.05
2022-11-09T04:26:04.519Z,221.40
2022-11-09T04:28:08.131Z,224.55
2022-11-09T04:30:10.073Z,207.32
2022-11-09T04:32:11.666Z,244.48
2022-11-09T04:34:13.187Z,215.77
2022-11-09T04:36:14.646Z,226.52
2022-11-09T04:38:16.838Z,241.73
2022-11-09T04:40:18.403Z,215.40
2022-11-09T04:42:19.996Z,218.98
2022-11-09T04:44:21.455Z,225.60
2022-11-09T04:46:23.173Z,243.40
2022-11-09T04:48:24.627Z,224.18
2022-11-09T04:50:26.680Z,243.27
2022-11-09T04:52:28.110Z,233.65
2022-11-09T04:54:29.578Z,228.38
2022-11-09T04:56:31.015Z,227.07
2022-11-09T04:58:32.937Z,216.80
2022-11-09T05:00:34.489Z,218.82
2022-11-09T05:02:35.958Z,226.80
2022-11-09T05:04:37.507Z,242.68
2022-11-09T05:06:39.109Z,207.02
2022-11-09T05:08:40.659Z,217.57
2022-11-09T05:10:42.155Z,216.25
2022-11-09T05:12:46.049Z,222.45
2022-11-09T05:14:47.687Z,245.98
2022-11-09T05:16:49.299Z,226.07
2022-11-09T05:18:51.655Z,221.48
2022-11-09T05:20:53.222Z,210.30
2022-11-09T05:23:13.303Z,199.30
2022-11-09T05:25:14.849Z,220.90
2022-11-09T05:27:16.328Z,257.27
2022-11-09T05:29:17.764Z,239.48
2022-11-09T05:31:19.498Z,225.85
2022-11-09T05:33:21.290Z,263.67
2022-11-09T05:35:23.155Z,265.80
2022-11-09T05:37:24.658Z,264.25
2022-11-09T05:39:26.174Z,226.98
2022-11-09T05:41:27.759Z,223.70
2022-11-09T05:43:29.231Z,276.00
2022-11-09T05:45:45.981Z,264.45
2022-11-09T05:47:47.459Z,294.33
2022-11-09T05:49:48.980Z,257.90
2022-11-09T05:51:50.439Z,246.57
2022-11-09T05:53:51.919Z,246.35
2022-11-09T05:55:53.414Z,257.73
2022-11-09T05:57:55.094Z,234.07
2022-11-09T05:59:56.799Z,234.07
2022-11-09T06:01:58.417Z,248.95
2022-11-09T06:03:59.901Z,254.75
2022-11-09T06:06:08.656Z,259.23
2022-11-09T06:08:13.696Z,221.70
2022-11-09T06:10:15.269Z,236.02
2022-11-09T06:12:16.731Z,237.13
2022-11-09T06:14:18.224Z,223.90
2022-11-09T06:16:20.087Z,210.57
2022-11-09T06:18:22.969Z,226.77
2022-11-09T06:20:27.294Z,218.98
2022-11-09T06:22:28.770Z,191.60
2022-11-09T06:24:30.256Z,191.70
2022-11-09T06:26:31.804Z,195.68
2022-11-09T06:28:34.535Z,191.30
2022-11-09T06:30:36.090Z,198.15
2022-11-09T06:32:37.545Z,183.00
2022-11-09T06:34:38.988Z,179.60
2022-11-09T06:36:40.536Z,174.05
2022-11-09T06:38:42.239Z,165.82
2022-11-09T06:40:43.705Z,153.63
2022-11-09T06:42:45.357Z,129.18
2022-11-09T06:44:46.817Z,117.22
2022-11-09T06:46:48.284Z,109.85
2022-11-09T06:48:54.394Z,104.57
2022-11-09T06:51:00.353Z,102.72
2022-11-09T06:53:07.654Z,93.40
2022-11-09T06:55:09.615Z,92.78
2022-11-09T06:57:11.218Z,97.50
2022-11-09T06:59:12.724Z,99.05
2022-11-09T07:01:17.630Z,100.32
2022-11-09T07:03:20.866Z,91.70
2022-11-09T07:05:23.547Z,83.90
2022-11-09T07:07:27.942Z,72.15
2022-11-09T07:09:29.884Z,71.43
2022-11-09T07:11:31.407Z,72.65
2022-11-09T07:13:32.899Z,78.03
2022-11-09T07:15:35.877Z,88.05
2022-11-09T07:17:39.708Z,77.57
2022-11-09T07:19:41.193Z,79.38
2022-11-09T07:21:42.686Z,74.47
2022-11-09T07:23:44.157Z,68.13
2022-11-09T07:25:45.769Z,64.82
2022-11-09T07:27:47.306Z,56.08
2022-11-09T07:29:48.757Z,61.95
2022-11-09T07:31:50.212Z,64.18
2022-11-09T07:33:51.687Z,57.33
2022-11-09T07:35:53.174Z,58.47
2022-11-09T07:37:55.013Z,58.05
2022-11-09T07:39:56.467Z,55.83
2022-11-09T07:41:57.973Z,60.55
2022-11-09T07:43:59.466Z,61.67
2022-11-09T07:46:03.834Z,60.67
2022-11-09T07:48:07.979Z,58.40
2022-11-09T07:50:09.999Z,71.25
2022-11-09T07:52:12.122Z,73.13
2022-11-09T07:54:13.628Z,72.70
2022-11-09T07:56:15.067Z,66.18
2022-11-09T07:58:16.586Z,68.43
2022-11-09T08:00:23.327Z,67.35
2022-11-09T08:02:25.305Z,53.85
2022-11-09T08:04:26.887Z,50.28
2022-11-09T08:06:28.554Z,48.58
2022-11-09T08:08:30.138Z,50.05
2022-11-09T08:10:32.509Z,39.35
2022-11-09T08:12:37.079Z,43.05
2022-11-09T08:14:38.949Z,41.53
2022-11-09T08:16:40.419Z,35.85
2022-11-09T08:18:41.938Z,36.83
2022-11-09T08:20:43.925Z,34.80
2022-11-09T08:22:46.537Z,34.53
2022-11-09T08:24:48.040Z,37.13
2022-11-09T08:26:49.489Z,31.25
2022-11-09T08:28:50.991Z,31.55
2022-11-09T08:31:01.282Z,32.45
2022-11-09T08:33:04.019Z,30.67
2022-11-09T08:35:06.019Z,33.83
2022-11-09T08:37:07.453Z,30.50
2022-11-09T08:39:09.348Z,31.70
2022-11-09T08:41:13.892Z,30.98
2022-11-09T08:43:15.616Z,29.60
2022-11-09T08:45:17.999Z,29.75
2022-11-09T08:47:19.677Z,31.65
2022-11-09T08:49:21.125Z,30.77
2022-11-09T08:51:23.480Z,32.33
2022-11-09T08:53:27.900Z,32.13
2022-11-09T08:55:30.092Z,33.70
2022-11-09T08:57:31.666Z,30.58
2022-11-09T08:59:33.122Z,30.60
2022-11-09T09:01:34.943Z,28.77
2022-11-09T09:03:36.555Z,32.67
2022-11-09T09:05:38.576Z,31.48
2022-11-09T09:07:40.029Z,31.77
2022-11-09T09:09:41.558Z,39.85
2022-11-09T09:11:46.048Z,32.13
2022-11-09T09:13:47.624Z,34.00
2022-11-09T09:15:50.090Z,37.30
2022-11-09T09:17:51.593Z,41.70
2022-11-09T09:19:53.427Z,32.08
2022-11-09T09:21:54.932Z,32.63
2022-11-09T09:23:56.412Z,31.52
2022-11-09T09:25:58.783Z,33.17
2022-11-09T09:28:00.364Z,29.67
2022-11-09T09:30:02.160Z,34.25
2022-11-09T09:32:03.919Z,30.13
2022-11-09T09:34:05.675Z,31.67
2022-11-09T09:36:07.503Z,33.22
2022-11-09T09:38:08.975Z,33.95
2022-11-09T09:40:24.748Z,31.65
2022-11-09T09:42:37.862Z,30.65
2022-11-09T09:44:57.000Z,36.38
2022-11-09T09:47:33.618Z,34.53
2022-11-09T09:49:40.037Z,31.52
2022-11-09T09:51:48.056Z,35.00
2022-11-09T09:54:10.439Z,37.13
2022-11-09T09:56:23.128Z,37.67
2022-11-09T09:58:29.775Z,34.80
2022-11-09T10:00:33.607Z,31.17
2022-11-09T10:02:36.643Z,27.48
2022-11-09T10:04:41.929Z,34.55
2022-11-09T10:07:02.250Z,30.45
2022-11-09T10:09:25.825Z,34.83
2022-11-09T10:12:01.408Z,27.95
2022-11-09T10:14:15.585Z,32.40
2022-11-09T10:16:20.110Z,29.45
2022-11-09T10:18:48.601Z,30.60
2022-11-09T10:20:53.154Z,31.55
2022-11-09T10:22:57.625Z,28.83
2022-11-09T10:25:32.542Z,27.88
2022-11-09T10:27:36.317Z,25.88
2022-11-09T10:29:50.200Z,37.25
2022-11-09T10:31:58.610Z,26.95
2022-11-09T10:34:10.980Z,30.63
2022-11-09T10:36:24.118Z,28.23
2022-11-09T10:38:37.238Z,25.83
2022-11-09T10:40:45.535Z,27.10
2022-11-09T10:42:59.463Z,25.30
2022-11-09T10:45:13.029Z,30.33
2022-11-09T10:47:16.883Z,23.25
2022-11-09T10:49:21.335Z,30.73
2022-11-09T10:51:38.098Z,29.55
2022-11-09T10:53:39.585Z,34.60
2022-11-09T10:55:57.782Z,28.95
2022-11-09T10:58:02.530Z,29.20
2022-11-09T11:00:05.346Z,27.13
2022-11-09T11:02:29.079Z,34.38
2022-11-09T11:04:30.626Z,27.15
2022-11-09T11:06:32.283Z,32.03
2022-11-09T11:08:37.798Z,29.75
2022-11-09T11:10:39.243Z,24.02
2022-11-09T11:12:45.245Z,33.83
2022-11-09T11:14:46.910Z,25.50
2022-11-09T11:16:50.836Z,26.48
2022-11-09T11:18:52.482Z,31.45
2022-11-09T11:21:18.686Z,25.63
2022-11-09T11:23:25.866Z,29.60
2022-11-09T11:25:28.438Z,25.73
2022-11-09T11:27:37.934Z,34.78
2022-11-09T11:29:39.376Z,33.45
2022-11-09T11:31:40.855Z,32.97
2022-11-09T11:33:42.551Z,28.23
2022-11-09T11:36:10.967Z,36.40
2022-11-09T11:38:45.213Z,31.85
2022-11-09T11:41:12.850Z,25.95
2022-11-09T11:43:33.177Z,23.67
2022-11-09T11:45:43.114Z,23.48
2022-11-09T11:50:17.839Z,23.73
2022-11-09T11:53:00.655Z,24.17
2022-11-09T11:55:16.322Z,26.30
2022-11-09T11:57:23.657Z,25.55
2022-11-09T11:59:52.474Z,33.88
2022-11-09T12:02:09.707Z,22.23
2022-11-09T12:04:39.896Z,31.00
2022-11-09T12:06:54.490Z,24.17
2022-11-09T12:09:22.066Z,25.08
2022-11-09T12:12:06.000Z,27.48
2022-11-09T12:14:27.683Z,22.92
2022-11-09T12:16:47.771Z,23.88
2022-11-09T12:18:58.316Z,24.77
2022-11-09T12:21:12.557Z,23.25
2022-11-09T12:23:28.463Z,22.20
2022-11-09T12:25:46.068Z,26.73
2022-11-09T12:28:12.135Z,26.23
2022-11-09T12:30:21.424Z,29.05
2022-11-09T12:32:34.956Z,24.38
2022-11-09T12:35:09.957Z,25.77
2022-11-09T12:37:20.228Z,25.33
2022-11-09T12:39:31.702Z,21.95
2022-11-09T12:41:36.785Z,25.50
2022-11-09T12:43:47.378Z,29.50
2022-11-09T12:45:51.176Z,25.88
2022-11-09T12:47:55.041Z,23.20
2022-11-09T12:49:56.948Z,23.13
2022-11-09T12:51:59.224Z,26.13
2022-11-09T12:54:09.969Z,28.75
2022-11-09T12:56:20.692Z,28.70
2022-11-09T12:58:30.977Z,26.23
2022-11-09T13:00:35.478Z,31.48
2022-11-09T13:02:54.136Z,28.23
2022-11-09T13:05:05.224Z,26.38
2022-11-09T13:07:07.100Z,25.27
2022-11-09T13:09:24.148Z,29.73
2022-11-09T13:11:39.335Z,29.60
2022-11-09T13:13:40.793Z,29.60
2022-11-09T13:16:11.794Z,33.03
2022-11-09T13:18:45.430Z,31.50
2022-11-09T13:20:57.432Z,30.85
2022-11-09T13:23:01.382Z,31.27
2022-11-09T13:25:41.418Z,35.55
2022-11-09T13:27:47.712Z,28.30
2022-11-09T13:29:56.070Z,29.35
2022-11-09T13:32:23.759Z,35.20
2022-11-09T13:34:42.999Z,31.92
2022-11-09T13:36:44.536Z,33.83
2022-11-09T13:38:47.749Z,33.95
2022-11-09T13:40:51.288Z,31.27
2022-11-09T13:43:04.940Z,35.50
2022-11-09T13:45:28.132Z,36.03
2022-11-09T13:47:36.770Z,34.80
2022-11-09T13:49:45.944Z,35.33
2022-11-09T13:51:48.202Z,31.88
2022-11-09T13:53:57.368Z,30.80
2022-11-09T13:55:58.987Z,36.88
2022-11-09T13:58:29.838Z,39.13
2022-11-09T14:00:31.436Z,45.75
2022-11-09T14:02:32.928Z,35.40
2022-11-09T14:04:40.285Z,32.58
2022-11-09T14:06:41.823Z,33.38
2022-11-09T14:08:43.960Z,34.38
2022-11-09T14:10:52.364Z,33.85
2022-11-09T14:13:13.783Z,33.03
2022-11-09T14:15:27.225Z,32.50
2022-11-09T14:18:10.832Z,33.10
2022-11-09T14:20:27.089Z,38.00
2022-11-09T14:22:34.688Z,35.10
2022-11-09T14:24:37.921Z,42.08
2022-11-09T14:26:39.435Z,32.78
2022-11-09T14:28:40.948Z,37.40
2022-11-09T14:30:45.324Z,40.38
2022-11-09T14:32:54.124Z,39.40
2022-11-09T14:35:23.479Z,42.15
2022-11-09T14:37:24.987Z,52.30
2022-11-09T14:39:34.107Z,42.75
2022-11-09T14:41:35.594Z,43.00
2022-11-09T14:43:43.915Z,48.70
2022-11-09T14:45:54.473Z,60.65
2022-11-09T14:47:58.757Z,79.13
2022-11-09T14:50:00.908Z,57.40
2022-11-09T14:52:03.178Z,55.40
2022-11-09T14:54:13.843Z,52.03
2022-11-09T14:56:18.454Z,52.40
2022-11-09T14:58:22.126Z,43.15
2022-11-09T15:00:33.342Z,59.80
2022-11-09T15:02:37.358Z,76.10
2022-11-09T15:04:59.722Z,72.05
2022-11-09T15:07:04.183Z,45.15
2022-11-09T15:09:14.556Z,44.95
2022-11-09T15:11:16.089Z,50.60
2022-11-09T15:13:19.235Z,44.97
2022-11-09T15:15:24.544Z,43.30
2022-11-09T15:17:30.271Z,50.20
2022-11-09T15:19:33.645Z,50.90
2022-11-09T15:21:38.147Z,48.47
2022-11-09T15:23:42.544Z,73.82
2022-11-09T15:25:47.019Z,81.50
2022-11-09T15:28:18.191Z,77.07
2022-11-09T15:30:38.951Z,76.63
2022-11-09T15:32:43.410Z,79.85
2022-11-09T15:34:58.171Z,65.95
2022-11-09T15:36:59.723Z,69.63
2022-11-09T15:39:17.684Z,74.20
2022-11-09T15:41:22.716Z,85.40
2022-11-09T15:43:24.239Z,72.03
2022-11-09T15:45:25.689Z,70.22
2022-11-09T15:47:35.328Z,70.80
2022-11-09T15:49:36.806Z,69.88
2022-11-09T15:51:38.683Z,84.10
2022-11-09T15:53:40.190Z,84.97
2022-11-09T15:55:41.711Z,70.72
2022-11-09T15:57:43.654Z,81.78
2022-11-09T15:59:46.900Z,112.68
2022-11-09T16:01:48.507Z,98.10
2022-11-09T16:03:50.172Z,109.78
2022-11-09T16:05:51.636Z,142.48
2022-11-09T16:07:54.636Z,187.05
2022-11-09T16:09:56.187Z,193.25
2022-11-09T16:11:57.682Z,178.70
2022-11-09T16:14:00.533Z,155.88
2022-11-09T16:16:06.923Z,135.82
2022-11-09T16:18:08.456Z,130.70
2022-11-09T16:20:10.311Z,132.93
2022-11-09T16:22:12.414Z,120.55
2022-11-09T16:24:16.710Z,173.70
2022-11-09T16:26:20.127Z,168.68
2022-11-09T16:28:23.932Z,148.15
2022-11-09T16:30:25.474Z,113.50
2022-11-09T16:32:27.306Z,96.47
2022-11-09T16:34:28.770Z,83.88
2022-11-09T16:36:31.277Z,82.47
2022-11-09T16:38:38.786Z,71.20
2022-11-09T16:40:40.266Z,69.15
2022-11-09T16:42:41.828Z,67.68
2022-11-09T16:44:45.198Z,67.45
2022-11-09T16:46:47.975Z,155.05
2022-11-09T16:48:49.527Z,164.57
2022-11-09T16:50:53.584Z,429.45
2022-11-09T16:52:55.079Z,166.05
2022-11-09T16:54:56.567Z,221.70
2022-11-09T16:56:58.124Z,158.80
2022-11-09T16:59:00.638Z,129.77
2022-11-09T17:01:11.971Z,95.03
2022-11-09T17:03:14.888Z,86.07
2022-11-09T17:05:16.441Z,225.07
2022-11-09T17:07:17.919Z,70.28
2022-11-09T17:09:20.674Z,77.60
2022-11-09T17:11:22.218Z,73.32
2022-11-09T17:13:23.707Z,81.22
2022-11-09T17:15:25.239Z,430.05
2022-11-09T17:17:26.685Z,441.52
2022-11-09T17:19:33.149Z,210.98
2022-11-09T17:21:34.711Z,171.73
2022-11-09T17:23:36.484Z,266.02
2022-11-09T17:25:38.453Z,206.68
2022-11-09T17:27:40.022Z,227.90
2022-11-09T17:29:41.524Z,234.57
2022-11-09T17:31:43.036Z,178.43
2022-11-09T17:33:44.936Z,160.98
2022-11-09T17:35:46.874Z,225.63
2022-11-09T17:37:48.518Z,271.45
2022-11-09T17:39:49.937Z,238.20
2022-11-09T17:41:51.508Z,168.05
2022-11-09T17:43:52.948Z,186.27
2022-11-09T17:45:56.167Z,169.88
2022-11-09T17:47:59.182Z,169.95
2022-11-09T17:50:00.626Z,112.35
2022-11-09T17:52:02.108Z,104.57
2022-11-09T17:54:04.607Z,239.00
2022-11-09T17:56:08.422Z,154.90
2022-11-09T17:58:09.877Z,120.50
2022-11-09T18:00:12.062Z,122.95
2022-11-09T18:02:15.415Z,107.95
2022-11-09T18:04:16.962Z,97.55
2022-11-09T18:06:23.299Z,130.25
2022-11-09T18:08:24.751Z,122.53
2022-11-09T18:10:26.198Z,100.00
2022-11-09T18:12:27.683Z,95.32
2022-11-09T18:14:29.212Z,81.90
2022-11-09T18:16:30.670Z,80.55
2022-11-09T18:18:32.412Z,95.13
2022-11-09T18:20:34.192Z,92.47
2022-11-09T18:22:35.693Z,115.13
2022-11-09T18:24:37.209Z,163.38
2022-11-09T18:26:38.744Z,102.00
2022-11-09T18:28:40.302Z,129.90
2022-11-09T18:30:41.922Z,84.35
2022-11-09T18:32:43.453Z,84.00
2022-11-09T18:34:44.904Z,89.50
2022-11-09T18:36:46.353Z,75.88
2022-11-09T18:38:47.856Z,80.43
2022-11-09T18:41:06.337Z,84.05
2022-11-09T18:43:07.808Z,108.63
2022-11-09T18:45:10.160Z,84.88
2022-11-09T18:47:13.706Z,79.93
2022-11-09T18:49:15.299Z,82.40
2022-11-09T18:51:16.842Z,78.68
2022-11-09T18:53:20.312Z,86.47
2022-11-09T18:55:21.999Z,97.90
2022-11-09T18:57:23.504Z,107.70
2022-11-09T18:59:24.992Z,112.88
2022-11-09T19:01:27.596Z,106.72
2022-11-09T19:03:29.513Z,109.38
2022-11-09T19:05:31.436Z,119.60
2022-11-09T19:07:32.892Z,116.93
2022-11-09T19:09:38.731Z,105.80
2022-11-09T19:11:40.870Z,88.63
2022-11-09T19:13:42.512Z,102.97
2022-11-09T19:15:45.504Z,109.85
2022-11-09T19:17:47.000Z,116.20
2022-11-09T19:19:48.610Z,118.95
2022-11-09T19:21:54.048Z,102.85
2022-11-09T19:23:56.004Z,133.10
2022-11-09T19:25:57.569Z,160.63
2022-11-09T19:27:59.416Z,172.68
2022-11-09T19:30:06.297Z,215.20
2022-11-09T19:32:10.664Z,215.00
2022-11-09T19:34:17.525Z,244.43
2022-11-09T19:36:30.125Z,206.93
2022-11-09T19:38:32.465Z,195.63
2022-11-09T19:40:39.406Z,206.23
2022-11-09T19:42:41.527Z,228.57
2022-11-09T19:44:43.053Z,212.45
2022-11-09T19:46:45.532Z,198.15
2022-11-09T19:48:47.618Z,233.75
2022-11-09T19:50:50.589Z,286.58
2022-11-09T19:52:52.097Z,346.08
2022-11-09T19:54:53.622Z,340.42
2022-11-09T19:56:55.267Z,335.60
2022-11-09T19:58:59.138Z,304.58
2022-11-09T20:01:05.765Z,309.13
2022-11-09T20:03:07.344Z,321.42
2022-11-09T20:05:09.290Z,312.95
2022-11-09T20:07:10.911Z,300.50
2022-11-09T20:09:12.560Z,528.45
2022-11-09T20:11:36.850Z,331.65
2022-11-09T20:13:39.463Z,223.13
2022-11-09T20:15:40.930Z,248.75
2022-11-09T20:17:42.524Z,245.23
2022-11-09T20:19:44.034Z,325.75
2022-11-09T20:21:45.763Z,277.05
2022-11-09T20:23:47.807Z,356.77
2022-11-09T20:25:49.255Z,299.70
2022-11-09T20:27:50.752Z,294.60
2022-11-09T20:29:52.322Z,278.83
2022-11-09T20:31:53.827Z,254.25
2022-11-09T20:33:56.634Z,246.65
2022-11-09T20:35:58.097Z,262.48
2022-11-09T20:37:59.620Z,221.57
2022-11-09T20:40:01.095Z,255.05
2022-11-09T20:42:02.608Z,274.85
2022-11-09T20:44:04.160Z,292.23
2022-11-09T20:46:24.377Z,424.35
2022-11-09T20:48:52.055Z,351.73
2022-11-09T20:50:47.905Z,290.33
2022-11-09T20:52:49.408Z,313.63
2022-11-09T20:54:50.900Z,306.80
2022-11-09T20:56:52.340Z,310.33
2022-11-09T20:58:53.827Z,396.85
2022-11-09T21:01:07.836Z,294.83
2022-11-09T21:03:09.407Z,258.52
2022-11-09T21:05:10.993Z,265.50
2022-11-09T21:07:12.672Z,288.73
2022-11-09T21:09:14.375Z,250.25
2022-11-09T21:11:16.670Z,252.88
2022-11-09T21:13:18.436Z,242.57
2022-11-09T21:15:20.030Z,237.73
2022-11-09T21:17:21.837Z,217.98
2022-11-09T21:19:23.587Z,226.85
2022-11-09T21:21:25.428Z,191.60
2022-11-09T21:23:27.017Z,207.15
2022-11-09T21:25:47.294Z,192.60
2022-11-09T21:28:21.468Z,159.10
2022-11-09T21:30:23.232Z,153.60
2022-11-09T21:32:24.916Z,157.57
2022-11-09T21:34:30.362Z,157.15
2022-11-09T21:36:34.364Z,189.43
2022-11-09T21:38:37.025Z,160.95
2022-11-09T21:40:38.575Z,156.60
2022-11-09T21:42:40.097Z,151.38
2022-11-09T21:44:41.728Z,141.07
2022-11-09T21:46:44.270Z,167.48
2022-11-09T21:48:45.787Z,154.27
2022-11-09T21:50:47.218Z,178.00
2022-11-09T21:52:48.695Z,155.75
2022-11-09T21:54:50.163Z,114.80
2022-11-09T21:56:52.744Z,105.47
2022-11-09T21:58:54.416Z,114.63
2022-11-09T22:01:07.546Z,115.53
2022-11-09T22:03:09.058Z,102.10
2022-11-09T22:05:10.848Z,101.70
2022-11-09T22:07:12.453Z,101.07
2022-11-09T22:09:16.634Z,103.30
2022-11-09T22:11:20.843Z,116.25
2022-11-09T22:13:41.158Z,120.32
2022-11-09T22:16:00.963Z,131.45
2022-11-09T22:20:22.446Z,86.88
2022-11-09T22:22:24.671Z,92.72
2022-11-09T22:24:26.098Z,93.50
2022-11-09T22:26:29.923Z,94.60
2022-11-09T22:28:32.560Z,93.32
2022-11-09T22:30:34.064Z,90.82
2022-11-09T22:32:35.597Z,84.82
2022-11-09T22:34:37.181Z,83.75
2022-11-09T22:36:38.650Z,74.82
2022-11-09T22:38:40.488Z,72.97
2022-11-09T22:40:41.964Z,74.07
2022-11-09T22:42:43.426Z,82.57
2022-11-09T22:44:44.911Z,73.47
2022-11-09T22:46:48.042Z,74.70
2022-11-09T22:48:49.557Z,89.63
2022-11-09T22:50:51.108Z,75.82
2022-11-09T22:53:00.867Z,86.22
2022-11-09T22:55:05.252Z,69.18
2022-11-09T22:57:06.701Z,73.75
2022-11-09T22:59:08.216Z,78.82
2022-11-09T23:01:16.048Z,68.40
2022-11-09T23:03:19.014Z,71.57
2022-11-09T23:05:20.758Z,75.82
2022-11-09T23:07:22.284Z,80.57
2022-11-09T23:09:23.756Z,69.43
2022-11-09T23:11:25.450Z,74.30
2022-11-09T23:13:26.971Z,81.35
2022-11-09T23:15:28.811Z,86.90
2022-11-09T23:17:53.446Z,80.22
2022-11-09T23:19:54.920Z,86.35
2022-11-09T23:21:56.390Z,71.30
2022-11-09T23:24:00.789Z,78.15
2022-11-09T23:26:03.311Z,89.18
2022-11-09T23:28:05.323Z,83.63
2022-11-09T23:30:07.184Z,80.28
2022-11-09T23:32:08.723Z,144.73
2022-11-09T23:34:10.425Z,573.38
2022-11-09T23:36:11.946Z,106.00
2022-11-09T23:38:13.426Z,93.78
2022-11-09T23:40:15.062Z,83.05
2022-11-09T23:42:16.623Z,88.82
2022-11-09T23:44:18.074Z,85.60
2022-11-09T23:46:19.568Z,128.60
2022-11-09T23:48:21.114Z,175.70
2022-11-09T23:50:22.723Z,150.45
2022-11-09T23:52:24.196Z,88.72
2022-11-09T23:54:25.655Z,193.43
2022-11-09T23:56:27.084Z,78.30
2022-11-09T23:58:29.236Z,81.60
